Time;durP1;ratioP1;P1;durP2;ratioP2;P2;SDS_P1;SDS_P2;PMS_P1;PMS_P2;Temp;Humidity;BMP_temperature;BMP_pressure;BME280_temperature;BME280_humidity;BME280_pressure;Samples;Min_cycle;Max_cycle;Signal;HPM_P1;HPM_P2
2021/12/05 00:22:37;;;;;;;0.80;0.80;;;3.80;99.90;;;;;;5094540;28;20083;-78
2021/12/05 00:25:06;;;;;;;0.70;0.70;;;3.70;99.90;;;;;;5093084;28;20083;-78
2021/12/05 00:27:46;;;;;;;0.60;0.60;;;3.80;99.90;;;;;;5092940;28;20048;-78
2021/12/05 00:38:42;;;;;;;0.90;0.90;;;3.80;99.90;;;;;;5093661;28;20048;-78
2021/12/05 00:41:06;;;;;;;0.50;0.50;;;3.70;99.90;;;;;;5091672;28;20082;-79
2021/12/05 00:59:34;;;;;;;0.70;0.70;;;3.80;99.90;;;;;;5093553;28;20073;-78
2021/12/05 01:05:21;;;;;;;1.45;1.33;;;3.80;99.90;;;;;;5093615;28;20048;-78
2021/12/05 01:10:34;;;;;;;0.60;0.60;;;4.00;99.90;;;;;;5097610;28;20071;-78
2021/12/05 01:13:31;;;;;;;0.60;0.60;;;3.80;99.90;;;;;;5097264;28;20564;-80
2021/12/05 01:16:00;;;;;;;0.50;0.50;;;3.80;99.90;;;;;;5097396;28;20121;-80
2021/12/05 01:18:27;;;;;;;0.60;0.60;;;3.80;99.90;;;;;;5096257;28;20051;-77
2021/12/05 01:20:58;;;;;;;0.88;0.88;;;3.80;99.90;;;;;;5097408;28;20085;-79
2021/12/05 01:23:56;;;;;;;0.60;0.60;;;3.70;99.90;;;;;;5096329;28;20048;-78
2021/12/05 01:26:19;;;;;;;0.60;0.60;;;3.70;99.90;;;;;;5095248;28;20070;-78
2021/12/05 01:29:11;;;;;;;0.80;0.70;;;3.70;99.90;;;;;;5096192;28;20040;-78
2021/12/05 01:39:22;;;;;;;1.02;0.93;;;3.70;99.90;;;;;;5097016;28;20422;-78
2021/12/05 01:42:38;;;;;;;0.50;0.50;;;3.70;99.90;;;;;;5097018;28;20047;-79
2021/12/05 01:48:11;;;;;;;0.60;0.60;;;3.70;99.90;;;;;;5096478;28;20059;-79
2021/12/05 02:30:51;;;;;;;0.60;0.60;;;3.90;99.90;;;;;;5095143;28;20048;-77
2021/12/05 02:33:22;;;;;;;1.20;0.90;;;3.90;99.90;;;;;;5094539;28;20056;-78
2021/12/05 02:41:19;;;;;;;0.60;0.60;;;3.90;99.90;;;;;;5094673;28;20147;-78
2021/12/05 02:43:49;;;;;;;0.50;0.50;;;3.90;99.90;;;;;;5095416;28;20488;-79
2021/12/05 02:46:19;;;;;;;0.77;0.70;;;3.90;99.90;;;;;;5094764;28;20082;-78
2021/12/05 02:48:46;;;;;;;4.57;1.15;;;5.00;99.90;;;;;;5094982;28;20055;-78
2021/12/05 02:51:25;;;;;;;0.60;0.60;;;3.90;99.90;;;;;;5094373;28;20373;-78
2021/12/05 02:54:03;;;;;;;0.63;0.63;;;;;;;;;;5094523;28;20048;-78
2021/12/05 02:56:31;;;;;;;;;;;3.90;99.90;;;;;;5095820;28;20560;-78
2021/12/05 02:59:05;;;;;;;1.35;1.25;;;3.90;99.90;;;;;;5095046;28;20390;-79
2021/12/05 03:01:43;;;;;;;1.75;1.15;;;3.90;99.90;;;;;;5095417;28;20050;-78
2021/12/05 03:04:09;;;;;;;0.95;0.95;;;3.90;99.90;;;;;;5079288;28;20051;-77
2021/12/05 03:06:38;;;;;;;0.60;0.60;;;3.90;99.90;;;;;;5095275;28;20130;-78
2021/12/05 03:09:08;;;;;;;1.02;0.93;;;3.90;99.90;;;;;;5095296;28;20052;-79
2021/12/05 03:11:34;;;;;;;0.50;0.50;;;3.90;99.90;;;;;;5095112;28;20404;-78
2021/12/05 03:14:00;;;;;;;0.77;0.77;;;4.00;99.90;;;;;;5094877;28;20563;-79
2021/12/05 03:16:27;;;;;;;1.95;1.73;;;4.00;99.90;;;;;;5095138;28;20139;-77
2021/12/05 03:18:53;;;;;;;1.35;1.02;;;3.90;99.90;;;;;;5095065;28;20039;-79
2021/12/05 03:21:19;;;;;;;1.52;1.42;;;3.90;99.90;;;;;;5077238;28;20054;-77
2021/12/05 03:23:47;;;;;;;4.60;4.18;;;3.90;99.90;;;;;;5094979;28;20056;-78
2021/12/05 03:26:18;;;;;;;1.33;1.23;;;3.90;99.90;;;;;;5093960;28;20048;-79
2021/12/05 03:28:44;;;;;;;1.13;1.13;;;3.90;99.90;;;;;;5094849;28;20046;-78
2021/12/05 03:31:10;;;;;;;0.80;0.80;;;3.90;99.90;;;;;;5094890;28;20051;-77
2021/12/05 03:33:36;;;;;;;0.80;0.80;;;3.90;99.90;;;;;;5093622;28;20044;-79
2021/12/05 03:36:05;;;;;;;0.80;0.80;;;3.90;99.90;;;;;;5094762;28;20048;-78
2021/12/05 03:38:31;;;;;;;0.80;0.80;;;3.90;99.90;;;;;;5093669;28;20079;-78
2021/12/05 03:40:57;;;;;;;1.88;1.75;;;3.80;99.90;;;;;;5094726;28;20044;-77
2021/12/05 03:43:23;;;;;;;0.68;0.68;;;3.80;99.90;;;;;;5094693;28;20044;-78
2021/12/05 03:45:54;;;;;;;0.60;0.60;;;3.80;99.90;;;;;;5093788;28;20131;-78
2021/12/05 03:48:22;;;;;;;0.60;0.60;;;3.80;99.90;;;;;;5093725;28;20067;-78
2021/12/05 03:50:49;;;;;;;0.50;0.50;;;3.80;99.90;;;;;;5093548;28;20040;-78
2021/12/05 03:53:16;;;;;;;0.60;0.60;;;3.70;99.90;;;;;;5094186;28;20506;-79
2021/12/05 03:55:43;;;;;;;1.20;0.80;;;3.70;99.90;;;;;;5094442;28;20392;-80
2021/12/05 03:58:10;;;;;;;0.65;0.65;;;3.70;99.90;;;;;;5093125;28;20048;-77
2021/12/05 04:00:40;;;;;;;0.70;0.70;;;3.60;99.90;;;;;;5093374;28;20043;-79
2021/12/05 04:03:10;;;;;;;0.70;0.70;;;3.60;99.90;;;;;;5093371;28;20048;-79
2021/12/05 04:05:37;;;;;;;0.60;0.60;;;3.60;99.90;;;;;;5093272;28;20484;-79
2021/12/05 04:08:06;;;;;;;1.50;1.40;;;3.60;99.90;;;;;;5093394;28;20044;-79
2021/12/05 04:10:34;;;;;;;1.80;1.70;;;3.60;99.90;;;;;;5094338;28;20066;-78
2021/12/05 04:13:00;;;;;;;1.35;1.13;;;3.50;99.90;;;;;;5094125;28;20070;-80
2021/12/05 04:15:26;;;;;;;0.60;0.60;;;3.50;99.90;;;;;;5093066;28;20044;-78
2021/12/05 04:17:52;;;;;;;0.60;0.60;;;3.40;99.90;;;;;;5092756;28;20044;-78
2021/12/05 04:20:18;;;;;;;0.60;0.60;;;3.50;99.90;;;;;;5076281;28;20083;-78
2021/12/05 04:22:45;;;;;;;0.73;0.73;;;3.40;99.90;;;;;;5092852;28;20456;-79
2021/12/05 04:25:13;;;;;;;0.60;0.60;;;3.40;99.90;;;;;;5092843;28;20044;-78
2021/12/05 04:27:42;;;;;;;0.68;0.68;;;3.50;99.90;;;;;;5076003;28;20408;-79
2021/12/05 04:30:11;;;;;;;0.80;0.80;;;3.30;99.90;;;;;;5093873;28;20055;-78
2021/12/05 04:32:40;;;;;;;0.73;0.73;;;3.30;99.90;;;;;;5093937;28;20404;-79
2021/12/05 04:35:06;;;;;;;0.90;0.90;;;3.30;99.90;;;;;;5093829;28;20054;-77
2021/12/05 04:37:32;;;;;;;0.70;0.70;;;3.30;99.90;;;;;;5092355;28;20130;-77
2021/12/05 04:39:58;;;;;;;0.60;0.60;;;3.00;99.90;;;;;;5093280;28;20456;-79
2021/12/05 04:42:24;;;;;;;0.70;0.70;;;3.20;99.90;;;;;;5093584;28;20396;-78
2021/12/05 04:44:50;;;;;;;0.60;0.60;;;3.20;99.90;;;;;;5092607;28;20040;-79
2021/12/05 04:47:16;;;;;;;3.83;1.95;;;3.10;99.90;;;;;;5092720;28;20036;-77
2021/12/05 04:49:42;;;;;;;2.92;2.72;;;3.10;99.90;;;;;;5092653;28;20036;-79
2021/12/05 04:52:09;;;;;;;0.63;0.63;;;3.10;99.90;;;;;;5093821;28;20491;-79
2021/12/05 04:54:36;;;;;;;0.60;0.60;;;3.10;99.90;;;;;;5093668;28;20083;-77
2021/12/05 04:57:02;;;;;;;0.60;0.60;;;3.00;99.90;;;;;;5092630;28;20126;-77
2021/12/05 04:59:30;;;;;;;0.60;0.60;;;3.00;99.90;;;;;;5093614;28;20079;-79
2021/12/05 05:01:57;;;;;;;0.60;0.60;;;3.00;99.90;;;;;;5092778;28;20040;-78
2021/12/05 05:04:29;;;;;;;5.47;1.83;;;3.00;99.90;;;;;;5093574;28;20054;-79
2021/12/05 05:07:03;;;;;;;0.60;0.60;;;3.00;99.90;;;;;;5093934;28;20124;-77
2021/12/05 05:09:29;;;;;;;0.60;0.60;;;3.00;99.90;;;;;;5093552;28;20135;-76
2021/12/05 05:11:55;;;;;;;0.60;0.60;;;3.00;99.90;;;;;;5093420;28;20048;-76
2021/12/05 05:14:21;;;;;;;0.60;0.60;;;3.00;99.90;;;;;;5092428;28;20118;-76
2021/12/05 05:16:52;;;;;;;0.60;0.60;;;3.00;99.90;;;;;;5093527;28;20052;-76
2021/12/05 05:19:18;;;;;;;1.00;1.00;;;3.00;99.90;;;;;;5092420;28;20113;-76
2021/12/05 05:21:52;;;;;;;0.60;0.60;;;3.10;99.90;;;;;;5093107;28;20568;-76
2021/12/05 05:24:38;;;;;;;0.75;0.70;;;3.10;99.90;;;;;;5093365;28;20276;-76
2021/12/05 05:40:37;;;;;;;2.38;2.25;;;3.10;99.90;;;;;;5093485;28;20048;-76
2021/12/05 05:48:38;;;;;;;0.73;0.73;;;3.00;99.90;;;;;;5093300;28;20055;-76
2021/12/05 05:51:06;;;;;;;1.40;1.35;;;3.00;99.90;;;;;;5092332;28;20044;-76
2021/12/05 05:53:32;;;;;;;1.33;1.25;;;3.00;99.90;;;;;;5095710;28;20043;-76
2021/12/05 05:55:58;;;;;;;0.93;0.93;;;3.00;99.90;;;;;;5096706;28;20127;-76
2021/12/05 05:58:38;;;;;;;0.67;0.67;;;3.00;99.90;;;;;;5096603;28;20086;-76
2021/12/05 06:01:08;;;;;;;0.70;0.70;;;3.00;99.90;;;;;;5096434;28;20484;-76
2021/12/05 06:03:34;;;;;;;1.13;0.93;;;3.00;99.90;;;;;;5096880;28;20441;-76
2021/12/05 06:06:06;;;;;;;0.60;0.60;;;3.00;99.90;;;;;;5096614;28;20093;-76
2021/12/05 06:08:33;;;;;;;0.70;0.70;;;3.00;99.90;;;;;;5096494;28;20494;-76
2021/12/05 06:11:03;;;;;;;0.95;0.90;;;3.00;99.90;;;;;;5096366;28;20040;-77
2021/12/05 06:13:31;;;;;;;0.70;0.70;;;3.00;99.90;;;;;;5096441;28;20040;-76
2021/12/05 06:15:57;;;;;;;0.60;0.60;;;3.00;99.90;;;;;;5096330;28;20056;-76
2021/12/05 06:18:23;;;;;;;0.70;0.70;;;3.00;99.90;;;;;;5096192;28;20036;-76
2021/12/05 06:20:50;;;;;;;0.60;0.60;;;3.00;99.90;;;;;;5096414;28;20121;-76
2021/12/05 06:23:16;;;;;;;0.90;0.90;;;3.00;99.90;;;;;;5096135;28;20131;-76
2021/12/05 06:25:44;;;;;;;1.02;1.02;;;3.00;99.90;;;;;;5096152;28;20125;-76
2021/12/05 06:28:13;;;;;;;0.60;0.60;;;3.10;99.90;;;;;;5096055;28;20046;-76
2021/12/05 06:30:54;;;;;;;7.78;4.45;;;3.10;99.90;;;;;;5096039;28;20079;-76
2021/12/05 06:41:50;;;;;;;0.60;0.60;;;3.20;99.90;;;;;;5095790;28;20044;-76
2021/12/05 06:47:01;;;;;;;0.70;0.70;;;3.20;99.90;;;;;;5095948;28;20052;-76
2021/12/05 06:49:27;;;;;;;2.00;1.88;;;3.30;99.90;;;;;;5095737;28;20051;-76
2021/12/05 06:51:56;;;;;;;0.70;0.70;;;3.30;99.90;;;;;;5095725;28;20048;-76
2021/12/05 06:54:22;;;;;;;0.70;0.70;;;3.30;99.90;;;;;;5095499;28;20085;-76
2021/12/05 06:56:48;;;;;;;1.00;1.00;;;3.30;99.90;;;;;;5095485;28;20126;-76
2021/12/05 06:59:14;;;;;;;0.90;0.90;;;3.40;99.90;;;;;;5095523;28;20055;-76
2021/12/05 07:01:40;;;;;;;0.60;0.60;;;3.40;99.90;;;;;;5095804;28;20044;-76
2021/12/05 07:04:16;;;;;;;1.55;1.50;;;3.40;99.90;;;;;;5095007;28;20044;-76
2021/12/05 07:06:42;;;;;;;0.70;0.70;;;4.20;99.90;;;;;;5095488;28;20173;-76
2021/12/05 07:09:10;;;;;;;0.65;0.65;;;3.40;99.90;;;;;;5095283;28;20075;-77
2021/12/05 07:14:34;;;;;;;0.60;0.60;;;3.50;99.90;;;;;;5095250;28;20412;-77
2021/12/05 07:17:08;;;;;;;0.60;0.60;;;3.50;99.90;;;;;;5095020;28;20428;-77
2021/12/05 07:22:14;;;;;;;0.80;0.80;;;3.50;99.90;;;;;;5094131;28;20056;-76
2021/12/05 07:24:45;;;;;;;0.70;0.70;;;3.50;99.90;;;;;;5095038;28;20044;-76
2021/12/05 07:41:11;;;;;;;0.60;0.60;;;3.60;99.90;;;;;;5094540;28;20048;-77
2021/12/05 07:43:37;;;;;;;2.97;2.72;;;3.60;99.90;;;;;;5094621;28;20079;-76
2021/12/05 07:46:06;;;;;;;0.68;0.68;;;3.60;99.90;;;;;;5094558;28;20043;-77
2021/12/05 07:48:35;;;;;;;1.27;1.23;;;3.60;99.90;;;;;;5094559;28;20082;-76
2021/12/05 07:56:36;;;;;;;0.70;0.70;;;3.70;99.90;;;;;;5094275;28;20507;-76
2021/12/05 08:15:30;;;;;;;0.90;0.90;;;3.80;99.90;;;;;;5093205;28;20122;-78
2021/12/05 08:17:58;;;;;;;0.70;0.70;;;3.80;99.90;;;;;;5094132;28;20094;-78
2021/12/05 08:20:36;;;;;;;0.60;0.60;;;3.80;99.90;;;;;;5093903;28;20048;-76
2021/12/05 08:23:03;;;;;;;0.60;0.60;;;4.80;99.90;;;;;;5094121;28;20502;-76
2021/12/05 08:25:32;;;;;;;0.60;0.60;;;4.00;99.90;;;;;;5092830;28;20126;-76
2021/12/05 08:28:14;;;;;;;2.15;1.45;;;3.90;99.90;;;;;;5092980;28;20105;-76
2021/12/05 08:30:40;;;;;;;0.60;0.60;;;3.90;99.90;;;;;;5093927;28;20052;-75
2021/12/05 08:35:52;;;;;;;0.50;0.50;;;4.00;99.90;;;;;;5092700;28;20048;-75
2021/12/05 09:08:53;;;;;;;0.60;0.60;;;4.10;99.90;;;;;;5093647;28;20044;-77
2021/12/05 09:25:33;;;;;;;0.50;0.50;;;4.20;99.90;;;;;;5093386;28;20048;-76
2021/12/05 09:28:22;;;;;;;0.70;0.70;;;4.20;99.90;;;;;;5096537;28;20040;-77
2021/12/05 10:01:29;;;;;;;0.70;0.70;;;4.30;99.90;;;;;;5096809;28;20132;-74
2021/12/05 10:09:55;;;;;;;0.50;0.50;;;4.40;99.90;;;;;;5095757;28;20048;-80
2021/12/05 10:15:27;;;;;;;0.73;0.73;;;4.50;99.90;;;;;;5097416;28;20054;-79
2021/12/05 10:27:14;;;;;;;0.60;0.60;;;4.60;99.90;;;;;;5095176;28;20117;-79
2021/12/05 10:38:49;;;;;;;0.50;0.50;;;4.80;99.90;;;;;;5094964;28;20054;-79
2021/12/05 10:41:46;;;;;;;0.60;0.60;;;4.90;99.90;;;;;;5095026;28;20040;-80
2021/12/05 10:44:12;;;;;;;0.50;0.50;;;4.90;99.90;;;;;;5094333;28;20052;-79
2021/12/05 10:46:39;;;;;;;0.60;0.60;;;4.90;99.90;;;;;;5094408;28;20499;-80
2021/12/05 10:49:05;;;;;;;;;;;5.00;99.90;;;;;;5095346;28;20119;-81
2021/12/05 10:51:33;;;;;;;0.50;0.50;;;5.20;99.90;;;;;;5094965;28;19998;-81
2021/12/05 10:54:09;;;;;;;0.60;0.60;;;5.30;99.90;;;;;;5094529;28;20036;-81
2021/12/05 10:56:38;;;;;;;0.50;0.50;;;5.00;99.90;;;;;;5095263;28;20084;-80
2021/12/05 10:59:11;;;;;;;0.60;0.60;;;5.10;99.90;;;;;;5094490;28;20090;-79
2021/12/05 11:01:49;;;;;;;0.85;0.85;;;5.10;99.90;;;;;;5094696;28;20052;-82
2021/12/05 11:04:17;;;;;;;6.63;1.85;;;5.10;99.90;;;;;;5094728;28;20040;-81
2021/12/05 11:07:01;;;;;;;0.50;0.50;;;5.10;99.90;;;;;;5095408;28;20048;-80
2021/12/05 11:09:34;;;;;;;0.68;0.68;;;5.10;99.90;;;;;;5095083;28;20054;-80
2021/12/05 11:12:09;;;;;;;0.80;0.80;;;5.10;99.90;;;;;;5082495;28;20394;-80
2021/12/05 11:14:46;;;;;;;0.90;0.88;;;5.20;99.90;;;;;;5094760;28;20044;-79
2021/12/05 11:17:26;;;;;;;0.57;0.57;;;5.10;99.90;;;;;;5094909;28;20095;-79
2021/12/05 11:19:55;;;;;;;0.60;0.60;;;5.40;99.90;;;;;;5095209;28;20044;-81
2021/12/05 11:22:48;;;;;;;0.80;0.80;;;5.40;99.90;;;;;;5095068;28;20052;-82
2021/12/05 11:25:21;;;;;;;1.17;1.08;;;5.50;99.90;;;;;;5094354;28;20059;-83
2021/12/05 11:27:50;;;;;;;0.50;0.50;;;5.60;99.90;;;;;;5094420;28;20032;-82
2021/12/05 11:30:18;;;;;;;0.50;0.50;;;5.60;99.90;;;;;;5093976;28;20135;-80
2021/12/05 11:33:19;;;;;;;0.50;0.50;;;5.60;99.90;;;;;;5094433;28;20048;-83
2021/12/05 11:35:52;;;;;;;0.52;0.52;;;5.70;99.90;;;;;;5083205;28;20086;-83
2021/12/05 11:38:21;;;;;;;0.60;0.60;;;5.50;99.90;;;;;;5092909;28;20090;-83
2021/12/05 11:41:02;;;;;;;0.60;0.60;;;5.70;99.90;;;;;;5094777;28;20040;-85
2021/12/05 11:43:37;;;;;;;1.30;0.77;;;5.70;99.90;;;;;;5094936;28;20093;-84
2021/12/05 11:46:05;;;;;;;0.80;0.80;;;5.70;99.90;;;;;;5093658;28;20048;-84
2021/12/05 11:48:34;;;;;;;0.85;0.85;;;5.70;99.90;;;;;;5094826;28;20036;-83
2021/12/05 11:51:02;;;;;;;0.60;0.60;;;5.70;99.90;;;;;;5094123;28;20542;-84
2021/12/05 11:53:39;;;;;;;0.85;0.85;;;5.80;99.90;;;;;;5094440;28;20048;-84
2021/12/05 11:56:06;;;;;;;0.60;0.60;;;5.80;99.90;;;;;;5094999;28;20040;-82
2021/12/05 11:58:32;;;;;;;0.50;0.50;;;5.80;99.90;;;;;;5094843;28;20302;-85
2021/12/05 12:01:10;;;;;;;0.50;0.50;;;5.80;99.90;;;;;;5093606;28;20502;-83
2021/12/05 12:03:37;;;;;;;0.50;0.50;;;6.60;99.90;;;;;;5076926;28;20403;-85
2021/12/05 12:06:04;;;;;;;0.50;0.50;;;5.70;99.90;;;;;;5094581;28;20079;-81
2021/12/05 12:08:30;;;;;;;1.27;1.17;;;5.70;99.90;;;;;;5094277;28;20495;-84
2021/12/05 12:10:59;;;;;;;0.50;0.50;;;5.70;99.90;;;;;;5094219;28;20477;-82
2021/12/05 12:13:29;;;;;;;0.70;0.70;;;5.60;99.90;;;;;;5094289;28;20048;-83
2021/12/05 12:15:59;;;;;;;0.50;0.50;;;5.60;99.90;;;;;;5092802;28;20052;-80
2021/12/05 12:18:33;;;;;;;0.50;0.50;;;5.60;99.90;;;;;;5094253;28;20048;-82
2021/12/05 12:21:07;;;;;;;0.50;0.50;;;5.60;99.90;;;;;;5094564;28;20044;-83
2021/12/05 12:23:33;;;;;;;0.70;0.70;;;5.60;99.90;;;;;;5093139;28;20056;-80
2021/12/05 12:26:01;;;;;;;1.08;1.00;;;5.60;99.90;;;;;;5093193;28;20047;-82
2021/12/05 12:28:27;;;;;;;0.95;0.93;;;5.60;99.90;;;;;;5093032;28;20048;-83
2021/12/05 12:31:07;;;;;;;0.75;0.75;;;5.60;99.90;;;;;;5092999;28;20533;-82
2021/12/05 12:33:39;;;;;;;0.50;0.50;;;5.60;99.90;;;;;;5093624;28;20484;-82
2021/12/05 12:36:05;;;;;;;0.50;0.50;;;5.60;99.90;;;;;;5093133;28;20051;-81
2021/12/05 12:38:30;;;;;;;0.67;0.67;;;5.60;99.90;;;;;;5092969;28;20040;-82
2021/12/05 12:40:58;;;;;;;0.60;0.60;;;5.60;99.90;;;;;;5092900;28;20354;-81
2021/12/05 12:43:38;;;;;;;0.60;0.60;;;5.60;99.90;;;;;;5092794;28;20083;-84
2021/12/05 12:46:20;;;;;;;0.50;0.50;;;5.60;99.90;;;;;;5093811;28;20054;-85
2021/12/05 12:48:47;;;;;;;0.50;0.50;;;5.60;99.90;;;;;;5092926;28;20036;-83
2021/12/05 12:51:38;;;;;;;0.60;0.60;;;5.60;99.90;;;;;;5093896;28;20048;-83
2021/12/05 12:54:18;;;;;;;0.60;0.60;;;6.40;99.90;;;;;;5093710;28;20051;-81
2021/12/05 12:57:12;;;;;;;1.60;0.70;;;5.70;99.90;;;;;;5094202;28;20384;-81
2021/12/05 13:00:00;;;;;;;0.60;0.60;;;5.70;99.90;;;;;;5093470;28;20055;-84
2021/12/05 13:02:48;;;;;;;;;;;5.70;99.90;;;;;;5096431;28;20048;-82
2021/12/05 13:11:25;;;;;;;0.70;0.68;;;5.60;99.90;;;;;;5096619;28;20063;-77
2021/12/05 13:14:01;;;;;;;0.60;0.60;;;5.70;99.90;;;;;;5098345;28;20419;-79
2021/12/05 13:16:32;;;;;;;0.95;0.95;;;5.70;99.90;;;;;;5097943;28;20052;-79
2021/12/05 13:19:06;;;;;;;0.52;0.52;;;5.70;99.90;;;;;;5097425;28;20044;-80
2021/12/05 13:21:38;;;;;;;0.50;0.50;;;5.70;99.90;;;;;;5096244;28;20052;-78
2021/12/05 13:24:26;;;;;;;0.50;0.50;;;5.70;99.90;;;;;;5096943;28;20113;-80
2021/12/05 13:27:08;;;;;;;0.60;0.60;;;5.70;99.90;;;;;;5097371;28;20051;-78
2021/12/05 13:29:57;;;;;;;0.52;0.52;;;5.70;99.90;;;;;;5096398;28;20059;-80
2021/12/05 13:32:31;;;;;;;0.60;0.60;;;5.80;99.90;;;;;;5097271;28;20048;-80
2021/12/05 13:35:00;;;;;;;0.50;0.50;;;5.80;99.90;;;;;;5097243;28;20051;-79
2021/12/05 13:37:36;;;;;;;1.65;1.48;;;5.80;99.90;;;;;;5096088;28;20484;-80
2021/12/05 13:40:11;;;;;;;1.42;1.13;;;5.80;99.90;;;;;;5096166;28;20044;-79
2021/12/05 13:42:37;;;;;;;0.60;0.60;;;5.80;99.90;;;;;;5078876;28;20044;-81
2021/12/05 13:45:26;;;;;;;1.08;1.05;;;5.80;99.90;;;;;;5097062;28;20090;-79
2021/12/05 13:47:51;;;;;;;0.93;0.93;;;5.70;99.90;;;;;;5097114;28;20097;-80
2021/12/05 13:50:29;;;;;;;0.60;0.60;;;5.70;99.90;;;;;;5096864;28;20044;-80
2021/12/05 13:53:05;;;;;;;0.68;0.68;;;6.70;99.90;;;;;;5096624;28;20484;-80
2021/12/05 13:55:53;;;;;;;0.50;0.50;;;5.70;99.90;;;;;;5096784;28;20051;-79
2021/12/05 13:58:45;;;;;;;0.60;0.60;;;5.60;99.90;;;;;;5095447;28;20131;-80
2021/12/05 14:01:17;;;;;;;0.50;0.50;;;5.50;99.90;;;;;;5096697;28;20126;-79
2021/12/05 14:04:09;;;;;;;0.60;0.60;;;5.50;99.90;;;;;;5096742;28;20392;-78
2021/12/05 14:06:34;;;;;;;0.50;0.50;;;5.50;99.90;;;;;;5096628;28;20079;-80
2021/12/05 14:09:22;;;;;;;0.70;0.70;;;5.40;99.90;;;;;;5096571;28;20051;-79
2021/12/05 14:12:01;;;;;;;0.68;0.68;;;5.40;99.90;;;;;;5097008;28;20087;-79
2021/12/05 14:14:37;;;;;;;0.63;0.63;;;5.40;99.90;;;;;;5094491;28;20040;-78
2021/12/05 14:17:09;;;;;;;0.60;0.60;;;5.30;99.90;;;;;;5096281;28;20054;-80
2021/12/05 14:19:37;;;;;;;0.82;0.82;;;5.30;99.90;;;;;;5096517;28;20044;-79
2021/12/05 14:22:05;;;;;;;0.60;0.60;;;5.30;99.90;;;;;;5096213;28;20048;-79
2021/12/05 14:24:39;;;;;;;0.80;0.80;;;5.30;99.90;;;;;;5096159;28;20040;-78
2021/12/05 14:27:09;;;;;;;0.50;0.50;;;5.30;99.90;;;;;;5096168;28;20047;-79
2021/12/05 14:29:39;;;;;;;0.50;0.50;;;5.40;99.90;;;;;;5095490;28;20082;-79
2021/12/05 14:32:09;;;;;;;0.60;0.60;;;5.30;99.90;;;;;;5096191;28;20085;-80
2021/12/05 14:34:35;;;;;;;0.50;0.50;;;5.30;99.90;;;;;;5095079;28;20032;-81
2021/12/05 14:37:17;;;;;;;0.73;0.73;;;5.30;99.90;;;;;;5095828;28;20173;-79
2021/12/05 14:39:44;;;;;;;0.50;0.50;;;5.20;99.90;;;;;;5096003;28;20127;-79
2021/12/05 14:42:16;;;;;;;0.55;0.55;;;5.30;99.90;;;;;;5096052;28;20089;-79
2021/12/05 14:44:45;;;;;;;0.60;0.60;;;5.30;99.90;;;;;;5095074;28;20476;-79
2021/12/05 14:47:14;;;;;;;0.60;0.60;;;5.30;99.90;;;;;;5095630;28;20044;-79
2021/12/05 14:49:49;;;;;;;0.50;0.50;;;5.20;99.90;;;;;;5094482;28;20055;-81
2021/12/05 14:52:19;;;;;;;0.60;0.60;;;5.20;99.90;;;;;;5094863;28;20032;-79
2021/12/05 14:54:44;;;;;;;0.80;0.60;;;5.20;99.90;;;;;;5095565;28;20048;-80
2021/12/05 14:57:24;;;;;;;1.05;0.75;;;5.20;99.90;;;;;;5095107;28;20361;-80
2021/12/05 14:59:58;;;;;;;0.60;0.60;;;5.20;99.90;;;;;;5095396;28;20040;-81
2021/12/05 15:02:24;;;;;;;0.50;0.50;;;5.20;99.90;;;;;;5095924;28;20127;-80
2021/12/05 15:04:54;;;;;;;0.60;0.60;;;5.20;99.90;;;;;;5095516;28;20391;-82
2021/12/05 15:07:22;;;;;;;0.50;0.50;;;5.20;99.90;;;;;;5095412;28;20048;-81
2021/12/05 15:09:53;;;;;;;0.50;0.50;;;5.20;99.90;;;;;;5095139;28;20071;-81
2021/12/05 15:12:29;;;;;;;0.60;0.60;;;5.20;99.90;;;;;;5095433;28;20123;-82
2021/12/05 15:14:58;;;;;;;0.60;0.60;;;5.20;99.90;;;;;;5095730;28;20040;-80
2021/12/05 15:17:33;;;;;;;0.60;0.60;;;5.20;99.90;;;;;;5094232;28;20040;-79
2021/12/05 15:20:12;;;;;;;0.50;0.50;;;5.10;99.90;;;;;;5095740;28;20052;-80
2021/12/05 15:22:38;;;;;;;0.50;0.50;;;5.20;99.90;;;;;;5095045;28;20064;-81
2021/12/05 15:25:07;;;;;;;0.60;0.60;;;5.10;99.90;;;;;;5094848;28;20168;-81
2021/12/05 15:27:35;;;;;;;1.35;1.25;;;5.10;99.90;;;;;;5094085;28;20093;-80
2021/12/05 15:30:27;;;;;;;0.75;0.75;;;5.10;99.90;;;;;;5095061;28;20048;-80
2021/12/05 15:32:58;;;;;;;0.60;0.60;;;5.10;99.90;;;;;;5095014;28;20066;-82
2021/12/05 15:35:24;;;;;;;0.93;0.93;;;5.10;99.90;;;;;;5093304;28;20048;-81
2021/12/05 15:37:51;;;;;;;0.50;0.50;;;5.10;99.90;;;;;;5092362;28;20115;-81
2021/12/05 15:40:18;;;;;;;0.50;0.50;;;5.10;99.90;;;;;;5093513;28;20538;-81
2021/12/05 15:42:44;;;;;;;0.50;0.50;;;5.10;99.90;;;;;;5093359;28;20534;-81
2021/12/05 15:45:13;;;;;;;0.60;0.60;;;5.10;99.90;;;;;;5098021;28;20037;-82
2021/12/05 15:47:40;;;;;;;0.50;0.50;;;5.10;99.90;;;;;;5092015;28;20039;-80
2021/12/05 15:50:06;;;;;;;0.65;0.65;;;5.00;99.90;;;;;;5075318;28;20127;-83
2021/12/05 15:52:39;;;;;;;0.77;0.77;;;5.00;99.90;;;;;;5093424;28;20124;-81
2021/12/05 15:55:26;;;;;;;0.60;0.60;;;5.00;99.90;;;;;;5093137;28;20043;-81
2021/12/05 15:58:02;;;;;;;0.73;0.50;;;5.00;99.90;;;;;;5090395;28;20028;-79
2021/12/05 16:00:32;;;;;;;0.60;0.60;;;5.00;99.90;;;;;;5092932;28;20040;-82
2021/12/05 16:03:01;;;;;;;0.60;0.60;;;5.00;99.90;;;;;;5093736;28;20165;-80
2021/12/05 16:05:27;;;;;;;0.60;0.60;;;5.00;99.90;;;;;;5093419;28;20052;-79
2021/12/05 16:08:08;;;;;;;0.70;0.70;;;5.00;99.90;;;;;;5093663;28;20047;-80
2021/12/05 16:10:37;;;;;;;0.50;0.50;;;5.00;99.90;;;;;;5092950;28;20130;-83
2021/12/05 16:13:14;;;;;;;0.50;0.50;;;5.00;99.90;;;;;;5094212;28;20104;-79
2021/12/05 16:15:44;;;;;;;0.60;0.60;;;5.00;99.90;;;;;;5076311;28;20048;-83
2021/12/05 16:18:10;;;;;;;0.60;0.60;;;5.00;99.90;;;;;;5092216;28;20044;-80
2021/12/05 16:21:02;;;;;;;0.50;0.50;;;5.00;99.90;;;;;;5093853;28;20043;-83
2021/12/05 16:23:29;;;;;;;0.50;0.50;;;4.90;99.90;;;;;;5092903;28;20506;-80
2021/12/05 16:26:14;;;;;;;0.73;0.73;;;4.90;99.90;;;;;;5092968;28;20066;-78
2021/12/05 16:28:46;;;;;;;0.50;0.50;;;4.90;99.90;;;;;;5092991;28;20544;-77
2021/12/05 16:31:33;;;;;;;0.50;0.50;;;4.90;99.90;;;;;;5093194;28;20058;-77
2021/12/05 16:34:17;;;;;;;0.50;0.50;;;4.90;99.90;;;;;;5076703;28;20051;-77
2021/12/05 16:37:12;;;;;;;0.70;0.70;;;4.90;99.90;;;;;;5093670;28;20403;-77
2021/12/05 16:39:54;;;;;;;0.50;0.50;;;4.90;99.90;;;;;;5092481;28;20048;-78
2021/12/05 16:42:23;;;;;;;0.60;0.60;;;4.90;99.90;;;;;;5093719;28;20487;-79
2021/12/05 16:44:53;;;;;;;0.70;0.70;;;5.10;99.90;;;;;;5093887;28;20052;-78
2021/12/05 16:47:22;;;;;;;0.93;0.93;;;4.90;99.90;;;;;;5093811;28;20092;-78
2021/12/05 16:49:51;;;;;;;0.50;0.50;;;4.90;99.90;;;;;;5093955;28;20047;-78
2021/12/05 16:52:21;;;;;;;0.60;0.60;;;4.90;99.90;;;;;;5093755;28;20388;-79
2021/12/05 16:54:54;;;;;;;0.60;0.60;;;4.90;99.90;;;;;;5093703;28;20546;-79
2021/12/05 16:57:29;;;;;;;0.80;0.80;;;4.90;99.90;;;;;;5092797;28;20044;-77
2021/12/05 16:59:59;;;;;;;0.82;0.80;;;4.90;99.90;;;;;;5093737;28;20054;-78
2021/12/05 17:02:41;;;;;;;1.25;1.15;;;4.90;99.90;;;;;;5093638;28;20123;-77
2021/12/05 17:05:44;;;;;;;2.03;1.92;;;5.00;99.90;;;;;;5092592;28;20052;-78
2021/12/05 17:08:19;;;;;;;0.95;0.95;;;5.00;99.90;;;;;;5080824;28;20048;-79
2021/12/05 17:10:53;;;;;;;0.85;0.73;;;5.20;99.90;;;;;;5093557;28;20510;-79
2021/12/05 17:13:41;;;;;;;1.80;1.70;;;5.00;99.90;;;;;;5091811;28;20047;-78
2021/12/05 17:16:16;;;;;;;0.63;0.63;;;5.00;99.90;;;;;;5108757;28;20128;-78
2021/12/05 17:18:53;;;;;;;1.17;1.13;;;4.90;99.90;;;;;;5093698;28;20044;-79
2021/12/05 17:21:40;;;;;;;8.33;3.70;;;4.90;99.90;;;;;;5074907;28;20117;-78
2021/12/05 17:24:27;;;;;;;1.02;0.95;;;4.90;99.90;;;;;;5093193;28;20050;-77
2021/12/05 17:26:56;;;;;;;0.68;0.68;;;4.90;99.90;;;;;;5093247;28;20052;-77
2021/12/05 17:29:34;;;;;;;2.13;2.03;;;4.90;99.90;;;;;;5075441;28;20055;-77
2021/12/05 17:32:07;;;;;;;0.70;0.70;;;4.90;99.90;;;;;;5093387;28;20083;-77
2021/12/05 17:34:42;;;;;;;1.15;1.10;;;4.90;99.90;;;;;;5093071;28;20408;-76
2021/12/05 17:37:14;;;;;;;0.60;0.60;;;4.90;99.90;;;;;;5093623;28;20051;-78
2021/12/05 17:39:43;;;;;;;2.28;1.75;;;4.90;99.90;;;;;;5093205;28;20040;-77
2021/12/05 17:42:16;;;;;;;1.25;0.85;;;4.90;99.90;;;;;;5091742;28;20200;-76
2021/12/05 17:44:43;;;;;;;0.80;0.80;;;4.90;99.90;;;;;;5092804;28;20129;-77
2021/12/05 17:47:14;;;;;;;1.30;1.20;;;4.90;99.90;;;;;;5076543;28;20048;-77
2021/12/05 17:49:43;;;;;;;0.60;0.60;;;4.90;99.90;;;;;;5097133;28;20044;-76
2021/12/05 17:52:11;;;;;;;0.60;0.60;;;4.90;99.90;;;;;;5096858;28;20066;-77
2021/12/05 17:54:53;;;;;;;0.70;0.70;;;4.90;99.90;;;;;;5095836;28;20128;-77
2021/12/05 17:57:30;;;;;;;0.95;0.85;;;4.90;99.90;;;;;;5095478;28;20040;-77
2021/12/05 18:00:11;;;;;;;1.08;1.08;;;4.90;99.90;;;;;;5095633;28;20482;-77
2021/12/05 18:02:46;;;;;;;0.80;0.77;;;4.90;99.90;;;;;;5096862;28;20079;-78
2021/12/05 18:05:20;;;;;;;1.75;0.73;;;4.90;99.90;;;;;;5096568;28;20048;-77
2021/12/05 18:07:48;;;;;;;1.95;1.10;;;4.90;99.90;;;;;;5096493;28;20044;-78
2021/12/05 18:10:16;;;;;;;0.70;0.70;;;4.80;99.90;;;;;;5096408;28;20442;-78
2021/12/05 18:12:43;;;;;;;0.70;0.70;;;4.80;99.90;;;;;;5095514;28;20079;-77
2021/12/05 18:15:27;;;;;;;0.50;0.50;;;4.80;99.90;;;;;;5095887;28;20097;-77